Aérodrome :
LOGIN :

S'inscrire | Disclaimer

   EN    FR    IT 

 










Légende :    VFR   VFR Marginal   IFR   IFR Intensif   IFR Très Intensif
Visi : 
Plafond : 
>= 8 km
>= 3000ft
5 à 8 km
1000 à 3000 ft
1500m à 5 km
500 à 1000 ft
800 à 1500m
200 à 500 ft
< 800m
< 200 ft
Symboles :   Orages  Brouillard  Fortes neiges  Fortes précipitations  Vent > 20 kt
SIGMETs :   Divers  Orages  Givrage  Turbulence  Onde Orograph.  Cendres Volcan.






- Altitude de l'aérodrome : 479 ft
- Code IATA : DOL


LFRG - Deauville

DERNIER METAR :
  • 221330Z AUTO 15004KT 080V230 CAVOK 21/13 Q1013 NOSIG

METARs EXPIRÉS :
  • 221300Z AUTO 12005KT 080V150 CAVOK 20/14 Q1013 NOSIG
  • 221230Z AUTO 16005KT 100V200 CAVOK 20/14 Q1013 NOSIG
  • 221200Z AUTO 11004KT 070V150 9999 ///TCU 19/14 Q1013 BECMG NSC
  • 221130Z AUTO VRB03KT 9999 ///CB 19/14 Q1014 BECMG NSC
  • 221100Z AUTO 10004KT 9999 ///CB 18/14 Q1014 BECMG NSC

TAF TAF LFRG
Valide du 22 à 12h jusqu'au 22 à 21h UTC


221100Z 2212/2221 VRB05KT CAVOK
ATIS : +33 2 31 65 65 36



MET'MAP, la Météo Aéronautique d'un coup d'oeil ! - Copyright ORBIFLY Décembre 2007 - Disclaimer

ORBIFLY MET'MAP TEAM :

Programmation & Développement : Alexandra Zaïnal
Sur une idée originale de : Baudouin d'Aumeries
Soutien technique & logistique : Manuel Goepfert
Assistance : Marc-Olivier Méhu

Contact : metmap@orbifly.com




SOURCES & CREDITS :

   NOAA